sensor_id;sensor_type;location;lat;lon;timestamp;temperature;humidity
34434;DHT22;34290;48.562;13.384;2023-05-16T00:02:01;8.20;99.90
34434;DHT22;34290;48.562;13.384;2023-05-16T00:06:59;8.20;99.90
34434;DHT22;34290;48.562;13.384;2023-05-16T00:11:53;8.10;99.90
34434;DHT22;34290;48.562;13.384;2023-05-16T00:19:18;8.10;99.90
34434;DHT22;34290;48.562;13.384;2023-05-16T00:21:45;8.00;99.90
34434;DHT22;34290;48.562;13.384;2023-05-16T00:24:14;8.00;99.90
34434;DHT22;34290;48.562;13.384;2023-05-16T00:26:41;8.00;99.90
34434;DHT22;34290;48.562;13.384;2023-05-16T00:29:08;8.10;99.90
34434;DHT22;34290;48.562;13.384;2023-05-16T00:34:02;8.00;99.90
34434;DHT22;34290;48.562;13.384;2023-05-16T00:36:29;8.00;99.90
34434;DHT22;34290;48.562;13.384;2023-05-16T00:38:56;8.00;99.90
34434;DHT22;34290;48.562;13.384;2023-05-16T00:41:25;8.10;99.90
34434;DHT22;34290;48.562;13.384;2023-05-16T00:43:52;8.10;99.90
34434;DHT22;34290;48.562;13.384;2023-05-16T00:46:19;8.10;99.90
34434;DHT22;34290;48.562;13.384;2023-05-16T00:48:46;8.10;99.90
34434;DHT22;34290;48.562;13.384;2023-05-16T00:51:13;8.10;99.90
34434;DHT22;34290;48.562;13.384;2023-05-16T00:53:40;8.10;99.90
34434;DHT22;34290;48.562;13.384;2023-05-16T00:56:07;8.10;99.90
34434;DHT22;34290;48.562;13.384;2023-05-16T00:58:36;8.00;99.90
34434;DHT22;34290;48.562;13.384;2023-05-16T01:01:03;8.00;99.90
34434;DHT22;34290;48.562;13.384;2023-05-16T01:05:57;7.90;99.90
34434;DHT22;34290;48.562;13.384;2023-05-16T01:08:24;8.00;99.90
34434;DHT22;34290;48.562;13.384;2023-05-16T01:11:01;7.90;99.90
34434;DHT22;34290;48.562;13.384;2023-05-16T01:13:40;7.90;99.90
34434;DHT22;34290;48.562;13.384;2023-05-16T01:16:15;7.90;99.90
34434;DHT22;34290;48.562;13.384;2023-05-16T01:18:51;7.90;99.90
34434;DHT22;34290;48.562;13.384;2023-05-16T01:21:31;7.90;99.90
34434;DHT22;34290;48.562;13.384;2023-05-16T01:24:08;8.00;99.90
34434;DHT22;34290;48.562;13.384;2023-05-16T01:26:40;8.00;99.90
34434;DHT22;34290;48.562;13.384;2023-05-16T01:29:07;8.00;99.90
34434;DHT22;34290;48.562;13.384;2023-05-16T01:34:02;8.10;99.90
34434;DHT22;34290;48.562;13.384;2023-05-16T01:36:39;8.20;99.90
34434;DHT22;34290;48.562;13.384;2023-05-16T01:39:14;8.30;99.90
34434;DHT22;34290;48.562;13.384;2023-05-16T01:41:55;8.30;99.90
34434;DHT22;34290;48.562;13.384;2023-05-16T01:44:30;8.20;99.90
34434;DHT22;34290;48.562;13.384;2023-05-16T01:47:00;8.30;99.90
34434;DHT22;34290;48.562;13.384;2023-05-16T01:49:34;8.30;99.90
34434;DHT22;34290;48.562;13.384;2023-05-16T01:52:07;8.20;99.90
34434;DHT22;34290;48.562;13.384;2023-05-16T01:54:38;8.30;99.90
34434;DHT22;34290;48.562;13.384;2023-05-16T01:57:09;8.30;99.90
34434;DHT22;34290;48.562;13.384;2023-05-16T01:59:36;8.40;99.90
34434;DHT22;34290;48.562;13.384;2023-05-16T02:02:04;8.40;99.90
34434;DHT22;34290;48.562;13.384;2023-05-16T02:04:31;8.30;99.90
34434;DHT22;34290;48.562;13.384;2023-05-16T02:06:58;8.30;99.90
34434;DHT22;34290;48.562;13.384;2023-05-16T02:09:26;8.20;99.90
34434;DHT22;34290;48.562;13.384;2023-05-16T02:11:53;8.20;99.90
34434;DHT22;34290;48.562;13.384;2023-05-16T02:14:22;8.20;99.90
34434;DHT22;34290;48.562;13.384;2023-05-16T02:16:50;8.30;99.90
34434;DHT22;34290;48.562;13.384;2023-05-16T02:19:17;8.30;99.90
34434;DHT22;34290;48.562;13.384;2023-05-16T02:21:44;8.30;99.90
34434;DHT22;34290;48.562;13.384;2023-05-16T02:24:11;8.30;99.90
34434;DHT22;34290;48.562;13.384;2023-05-16T02:26:38;8.30;99.90
34434;DHT22;34290;48.562;13.384;2023-05-16T02:29:05;8.30;99.90
34434;DHT22;34290;48.562;13.384;2023-05-16T02:31:33;8.30;99.90
34434;DHT22;34290;48.562;13.384;2023-05-16T02:34:01;8.20;99.90
34434;DHT22;34290;48.562;13.384;2023-05-16T02:36:28;8.20;99.90
34434;DHT22;34290;48.562;13.384;2023-05-16T02:38:56;8.20;99.90
34434;DHT22;34290;48.562;13.384;2023-05-16T02:41:23;8.30;99.90
34434;DHT22;34290;48.562;13.384;2023-05-16T02:43:51;8.30;99.90
34434;DHT22;34290;48.562;13.384;2023-05-16T02:46:22;8.40;99.90
34434;DHT22;34290;48.562;13.384;2023-05-16T02:48:51;8.40;99.90
34434;DHT22;34290;48.562;13.384;2023-05-16T02:51:20;8.50;99.90
34434;DHT22;34290;48.562;13.384;2023-05-16T02:53:47;8.50;99.90
34434;DHT22;34290;48.562;13.384;2023-05-16T02:56:14;8.60;99.90
34434;DHT22;34290;48.562;13.384;2023-05-16T02:58:41;8.60;99.90
34434;DHT22;34290;48.562;13.384;2023-05-16T03:01:08;8.50;99.90
34434;DHT22;34290;48.562;13.384;2023-05-16T03:03:36;8.50;99.90
34434;DHT22;34290;48.562;13.384;2023-05-16T03:06:04;8.40;99.90
34434;DHT22;34290;48.562;13.384;2023-05-16T03:08:32;8.40;99.90
34434;DHT22;34290;48.562;13.384;2023-05-16T03:11:02;8.30;99.90
34434;DHT22;34290;48.562;13.384;2023-05-16T03:13:29;8.20;99.90
34434;DHT22;34290;48.562;13.384;2023-05-16T03:15:57;8.20;99.90
34434;DHT22;34290;48.562;13.384;2023-05-16T03:18:24;8.30;99.90
34434;DHT22;34290;48.562;13.384;2023-05-16T03:20:51;8.30;99.90
34434;DHT22;34290;48.562;13.384;2023-05-16T03:23:20;8.20;99.90
34434;DHT22;34290;48.562;13.384;2023-05-16T03:25:47;8.20;99.90
34434;DHT22;34290;48.562;13.384;2023-05-16T03:28:16;8.30;99.90
34434;DHT22;34290;48.562;13.384;2023-05-16T03:30:43;8.40;99.90
34434;DHT22;34290;48.562;13.384;2023-05-16T03:33:10;8.40;99.90
34434;DHT22;34290;48.562;13.384;2023-05-16T03:35:37;8.50;99.90
34434;DHT22;34290;48.562;13.384;2023-05-16T03:38:05;8.50;99.90
34434;DHT22;34290;48.562;13.384;2023-05-16T03:40:34;8.60;99.90
34434;DHT22;34290;48.562;13.384;2023-05-16T03:43:04;8.60;99.90
34434;DHT22;34290;48.562;13.384;2023-05-16T03:45:31;8.60;99.90
34434;DHT22;34290;48.562;13.384;2023-05-16T03:47:58;8.50;99.90
34434;DHT22;34290;48.562;13.384;2023-05-16T03:50:25;8.60;99.90
34434;DHT22;34290;48.562;13.384;2023-05-16T03:52:52;8.60;99.90
34434;DHT22;34290;48.562;13.384;2023-05-16T03:55:19;8.60;99.90
34434;DHT22;34290;48.562;13.384;2023-05-16T03:57:48;8.60;99.90
34434;DHT22;34290;48.562;13.384;2023-05-16T04:00:17;8.60;99.90
34434;DHT22;34290;48.562;13.384;2023-05-16T04:02:44;8.50;99.90
34434;DHT22;34290;48.562;13.384;2023-05-16T04:05:11;8.50;99.90
34434;DHT22;34290;48.562;13.384;2023-05-16T04:07:38;8.60;99.90
34434;DHT22;34290;48.562;13.384;2023-05-16T04:10:06;8.70;99.90
34434;DHT22;34290;48.562;13.384;2023-05-16T04:12:33;8.70;99.90
34434;DHT22;34290;48.562;13.384;2023-05-16T04:15:02;8.70;99.90
34434;DHT22;34290;48.562;13.384;2023-05-16T04:17:29;8.70;99.90
34434;DHT22;34290;48.562;13.384;2023-05-16T04:19:56;8.60;99.90
34434;DHT22;34290;48.562;13.384;2023-05-16T04:22:23;8.70;99.90
34434;DHT22;34290;48.562;13.384;2023-05-16T04:24:50;8.70;99.90
34434;DHT22;34290;48.562;13.384;2023-05-16T04:27:17;8.60;99.90
34434;DHT22;34290;48.562;13.384;2023-05-16T04:29:44;8.60;99.90
34434;DHT22;34290;48.562;13.384;2023-05-16T04:32:12;8.60;99.90
34434;DHT22;34290;48.562;13.384;2023-05-16T04:34:39;8.70;99.90
34434;DHT22;34290;48.562;13.384;2023-05-16T04:37:08;8.70;99.90
34434;DHT22;34290;48.562;13.384;2023-05-16T04:39:36;8.70;99.90
34434;DHT22;34290;48.562;13.384;2023-05-16T04:42:04;8.90;99.90
34434;DHT22;34290;48.562;13.384;2023-05-16T04:44:31;8.90;99.90
34434;DHT22;34290;48.562;13.384;2023-05-16T04:46:59;9.00;99.90
34434;DHT22;34290;48.562;13.384;2023-05-16T04:49:27;9.10;99.90
34434;DHT22;34290;48.562;13.384;2023-05-16T04:51:54;8.90;99.90
34434;DHT22;34290;48.562;13.384;2023-05-16T04:54:21;8.90;99.90
34434;DHT22;34290;48.562;13.384;2023-05-16T04:56:48;9.00;99.90
34434;DHT22;34290;48.562;13.384;2023-05-16T04:59:15;9.10;99.90
34434;DHT22;34290;48.562;13.384;2023-05-16T05:01:42;9.20;99.90
34434;DHT22;34290;48.562;13.384;2023-05-16T05:04:09;9.40;99.90
34434;DHT22;34290;48.562;13.384;2023-05-16T05:06:38;9.40;99.90
34434;DHT22;34290;48.562;13.384;2023-05-16T05:09:05;9.60;99.90
34434;DHT22;34290;48.562;13.384;2023-05-16T05:11:33;9.70;99.90
34434;DHT22;34290;48.562;13.384;2023-05-16T05:14:00;9.70;99.90
34434;DHT22;34290;48.562;13.384;2023-05-16T05:16:27;9.80;99.90
34434;DHT22;34290;48.562;13.384;2023-05-16T05:18:54;9.80;99.90
34434;DHT22;34290;48.562;13.384;2023-05-16T05:21:21;9.90;99.90
34434;DHT22;34290;48.562;13.384;2023-05-16T05:23:51;9.90;99.90
34434;DHT22;34290;48.562;13.384;2023-05-16T05:26:18;10.00;99.90
34434;DHT22;34290;48.562;13.384;2023-05-16T05:28:47;10.00;99.90
34434;DHT22;34290;48.562;13.384;2023-05-16T05:31:14;10.00;99.90
34434;DHT22;34290;48.562;13.384;2023-05-16T05:33:41;10.00;99.90
34434;DHT22;34290;48.562;13.384;2023-05-16T05:36:08;10.10;99.90
34434;DHT22;34290;48.562;13.384;2023-05-16T05:38:35;10.10;99.90
34434;DHT22;34290;48.562;13.384;2023-05-16T05:41:04;10.10;99.90
34434;DHT22;34290;48.562;13.384;2023-05-16T05:43:31;10.10;99.90
34434;DHT22;34290;48.562;13.384;2023-05-16T05:45:58;10.10;99.90
34434;DHT22;34290;48.562;13.384;2023-05-16T05:48:25;10.20;99.90
34434;DHT22;34290;48.562;13.384;2023-05-16T05:50:54;10.20;99.90
34434;DHT22;34290;48.562;13.384;2023-05-16T05:53:21;10.20;99.90
34434;DHT22;34290;48.562;13.384;2023-05-16T05:55:48;10.20;99.90
34434;DHT22;34290;48.562;13.384;2023-05-16T05:58:16;10.30;99.90
34434;DHT22;34290;48.562;13.384;2023-05-16T06:00:43;10.50;99.90
34434;DHT22;34290;48.562;13.384;2023-05-16T06:03:12;10.50;99.90
34434;DHT22;34290;48.562;13.384;2023-05-16T06:05:39;10.50;99.90
34434;DHT22;34290;48.562;13.384;2023-05-16T06:08:06;10.50;99.90
34434;DHT22;34290;48.562;13.384;2023-05-16T06:10:33;10.50;99.90
34434;DHT22;34290;48.562;13.384;2023-05-16T06:13:00;10.50;99.90
34434;DHT22;34290;48.562;13.384;2023-05-16T06:15:28;10.50;99.90
34434;DHT22;34290;48.562;13.384;2023-05-16T06:17:55;10.70;99.90
34434;DHT22;34290;48.562;13.384;2023-05-16T06:20:22;10.90;99.90
34434;DHT22;34290;48.562;13.384;2023-05-16T06:22:49;10.90;99.90
34434;DHT22;34290;48.562;13.384;2023-05-16T06:25:16;11.00;99.90
34434;DHT22;34290;48.562;13.384;2023-05-16T06:27:44;11.20;99.90
34434;DHT22;34290;48.562;13.384;2023-05-16T06:30:11;11.30;99.90
34434;DHT22;34290;48.562;13.384;2023-05-16T06:32:40;11.40;99.90
34434;DHT22;34290;48.562;13.384;2023-05-16T06:35:08;11.50;99.90
34434;DHT22;34290;48.562;13.384;2023-05-16T06:37:35;11.40;99.90
34434;DHT22;34290;48.562;13.384;2023-05-16T06:40:02;11.30;99.90
34434;DHT22;34290;48.562;13.384;2023-05-16T06:42:30;11.30;99.90
34434;DHT22;34290;48.562;13.384;2023-05-16T06:44:57;11.20;99.90
34434;DHT22;34290;48.562;13.384;2023-05-16T06:47:24;11.20;99.90
34434;DHT22;34290;48.562;13.384;2023-05-16T06:49:52;11.10;99.90
34434;DHT22;34290;48.562;13.384;2023-05-16T06:52:19;11.10;99.90
34434;DHT22;34290;48.562;13.384;2023-05-16T06:54:47;11.20;99.90
34434;DHT22;34290;48.562;13.384;2023-05-16T06:57:14;11.30;99.90
34434;DHT22;34290;48.562;13.384;2023-05-16T06:59:42;11.40;99.90
34434;DHT22;34290;48.562;13.384;2023-05-16T07:02:09;11.50;99.90
34434;DHT22;34290;48.562;13.384;2023-05-16T07:04:36;11.60;99.90
34434;DHT22;34290;48.562;13.384;2023-05-16T07:07:04;11.70;99.90
34434;DHT22;34290;48.562;13.384;2023-05-16T07:09:32;11.60;99.90
34434;DHT22;34290;48.562;13.384;2023-05-16T07:12:02;11.60;99.90
34434;DHT22;34290;48.562;13.384;2023-05-16T07:14:29;11.70;99.90
34434;DHT22;34290;48.562;13.384;2023-05-16T07:16:56;11.90;99.90
34434;DHT22;34290;48.562;13.384;2023-05-16T07:19:23;12.00;99.90
34434;DHT22;34290;48.562;13.384;2023-05-16T07:21:51;12.00;99.90
34434;DHT22;34290;48.562;13.384;2023-05-16T07:24:19;12.10;99.90
34434;DHT22;34290;48.562;13.384;2023-05-16T07:26:46;12.20;99.90
34434;DHT22;34290;48.562;13.384;2023-05-16T07:29:14;12.40;99.90
34434;DHT22;34290;48.562;13.384;2023-05-16T07:31:41;12.60;99.90
34434;DHT22;34290;48.562;13.384;2023-05-16T07:34:08;12.50;99.90
34434;DHT22;34290;48.562;13.384;2023-05-16T07:36:36;12.40;99.90
34434;DHT22;34290;48.562;13.384;2023-05-16T07:41:31;12.70;99.90
34434;DHT22;34290;48.562;13.384;2023-05-16T07:46:26;13.00;99.90
34434;DHT22;34290;48.562;13.384;2023-05-16T07:51:20;13.40;99.90
34434;DHT22;34290;48.562;13.384;2023-05-16T07:56:14;13.70;99.90
34434;DHT22;34290;48.562;13.384;2023-05-16T07:58:42;13.90;99.90
34434;DHT22;34290;48.562;13.384;2023-05-16T08:01:09;14.00;99.90
34434;DHT22;34290;48.562;13.384;2023-05-16T08:03:36;14.20;99.90
34434;DHT22;34290;48.562;13.384;2023-05-16T08:06:04;14.50;99.90
34434;DHT22;34290;48.562;13.384;2023-05-16T08:08:31;14.60;99.90
34434;DHT22;34290;48.562;13.384;2023-05-16T08:10:58;14.90;99.90
34434;DHT22;34290;48.562;13.384;2023-05-16T08:13:25;14.80;99.90
34434;DHT22;34290;48.562;13.384;2023-05-16T08:15:53;15.00;99.90
34434;DHT22;34290;48.562;13.384;2023-05-16T08:18:20;15.30;99.90
34434;DHT22;34290;48.562;13.384;2023-05-16T08:20:47;15.50;99.90
34434;DHT22;34290;48.562;13.384;2023-05-16T08:23:14;15.70;99.90
34434;DHT22;34290;48.562;13.384;2023-05-16T08:25:41;15.70;99.90
34434;DHT22;34290;48.562;13.384;2023-05-16T08:28:08;16.10;99.90
34434;DHT22;34290;48.562;13.384;2023-05-16T08:30:35;16.30;99.90
34434;DHT22;34290;48.562;13.384;2023-05-16T08:33:05;17.10;99.90
34434;DHT22;34290;48.562;13.384;2023-05-16T08:35:31;17.90;99.90
34434;DHT22;34290;48.562;13.384;2023-05-16T08:38:00;18.40;99.90
34434;DHT22;34290;48.562;13.384;2023-05-16T08:40:27;18.90;99.90
34434;DHT22;34290;48.562;13.384;2023-05-16T08:42:55;18.80;99.90
34434;DHT22;34290;48.562;13.384;2023-05-16T08:45:22;18.30;99.90
34434;DHT22;34290;48.562;13.384;2023-05-16T08:47:49;18.10;99.90
34434;DHT22;34290;48.562;13.384;2023-05-16T08:50:21;18.50;99.90
34434;DHT22;34290;48.562;13.384;2023-05-16T08:52:51;18.70;99.90
34434;DHT22;34290;48.562;13.384;2023-05-16T08:55:19;18.70;99.90
34434;DHT22;34290;48.562;13.384;2023-05-16T08:57:48;18.40;99.90
34434;DHT22;34290;48.562;13.384;2023-05-16T09:00:17;18.30;99.90
34434;DHT22;34290;48.562;13.384;2023-05-16T09:02:45;18.40;99.90
34434;DHT22;34290;48.562;13.384;2023-05-16T09:05:14;18.00;99.90
34434;DHT22;34290;48.562;13.384;2023-05-16T09:07:43;17.80;99.90
34434;DHT22;34290;48.562;13.384;2023-05-16T09:10:11;17.80;99.90
34434;DHT22;34290;48.562;13.384;2023-05-16T09:12:39;17.70;99.90
34434;DHT22;34290;48.562;13.384;2023-05-16T09:15:07;17.60;99.90
34434;DHT22;34290;48.562;13.384;2023-05-16T09:17:35;17.80;99.90
34434;DHT22;34290;48.562;13.384;2023-05-16T09:20:11;17.80;99.90
34434;DHT22;34290;48.562;13.384;2023-05-16T09:22:39;17.80;99.90
34434;DHT22;34290;48.562;13.384;2023-05-16T09:25:08;17.90;99.90
34434;DHT22;34290;48.562;13.384;2023-05-16T09:27:42;17.90;99.90
34434;DHT22;34290;48.562;13.384;2023-05-16T09:30:09;17.90;99.90
34434;DHT22;34290;48.562;13.384;2023-05-16T09:32:42;18.00;99.90
34434;DHT22;34290;48.562;13.384;2023-05-16T09:35:14;18.20;99.90
34434;DHT22;34290;48.562;13.384;2023-05-16T09:37:43;18.40;99.90
34434;DHT22;34290;48.562;13.384;2023-05-16T09:40:13;18.50;99.90
34434;DHT22;34290;48.562;13.384;2023-05-16T09:42:41;18.30;99.90
34434;DHT22;34290;48.562;13.384;2023-05-16T09:45:11;18.00;99.90
34434;DHT22;34290;48.562;13.384;2023-05-16T09:47:38;18.50;99.90
34434;DHT22;34290;48.562;13.384;2023-05-16T09:52:38;18.60;99.90
34434;DHT22;34290;48.562;13.384;2023-05-16T09:55:07;18.70;99.90
34434;DHT22;34290;48.562;13.384;2023-05-16T09:57:37;18.90;99.90
34434;DHT22;34290;48.562;13.384;2023-05-16T10:00:06;18.90;99.90
34434;DHT22;34290;48.562;13.384;2023-05-16T10:02:37;18.70;99.90
34434;DHT22;34290;48.562;13.384;2023-05-16T10:05:05;18.90;99.90
34434;DHT22;34290;48.562;13.384;2023-05-16T10:07:32;19.00;99.90
34434;DHT22;34290;48.562;13.384;2023-05-16T10:10:00;19.10;99.90
34434;DHT22;34290;48.562;13.384;2023-05-16T10:12:32;19.00;99.90
34434;DHT22;34290;48.562;13.384;2023-05-16T10:15:02;18.90;99.90
34434;DHT22;34290;48.562;13.384;2023-05-16T10:17:33;18.60;99.90
34434;DHT22;34290;48.562;13.384;2023-05-16T10:20:01;18.50;99.90
34434;DHT22;34290;48.562;13.384;2023-05-16T10:22:33;18.40;99.90
34434;DHT22;34290;48.562;13.384;2023-05-16T10:25:06;18.20;99.90
34434;DHT22;34290;48.562;13.384;2023-05-16T10:27:35;18.00;99.90
34434;DHT22;34290;48.562;13.384;2023-05-16T10:30:04;18.00;99.90
34434;DHT22;34290;48.562;13.384;2023-05-16T10:32:32;17.60;99.90
34434;DHT22;34290;48.562;13.384;2023-05-16T10:35:00;17.20;99.90
34434;DHT22;34290;48.562;13.384;2023-05-16T10:37:28;17.00;99.90
34434;DHT22;34290;48.562;13.384;2023-05-16T10:39:56;16.90;99.90
34434;DHT22;34290;48.562;13.384;2023-05-16T10:42:25;16.60;99.90
34434;DHT22;34290;48.562;13.384;2023-05-16T10:44:54;16.50;99.90
34434;DHT22;34290;48.562;13.384;2023-05-16T10:47:23;16.30;99.90
34434;DHT22;34290;48.562;13.384;2023-05-16T10:49:50;16.20;99.90
34434;DHT22;34290;48.562;13.384;2023-05-16T10:52:17;15.90;99.90
34434;DHT22;34290;48.562;13.384;2023-05-16T10:54:50;15.80;99.90
34434;DHT22;34290;48.562;13.384;2023-05-16T10:57:21;15.80;99.90
34434;DHT22;34290;48.562;13.384;2023-05-16T10:59:50;16.10;99.90
34434;DHT22;34290;48.562;13.384;2023-05-16T11:02:27;16.10;99.90
34434;DHT22;34290;48.562;13.384;2023-05-16T11:04:55;16.30;99.90
34434;DHT22;34290;48.562;13.384;2023-05-16T11:07:25;16.30;99.90
34434;DHT22;34290;48.562;13.384;2023-05-16T11:10:03;16.40;99.90
34434;DHT22;34290;48.562;13.384;2023-05-16T11:12:51;16.60;99.90
34434;DHT22;34290;48.562;13.384;2023-05-16T11:15:22;16.80;99.90
34434;DHT22;34290;48.562;13.384;2023-05-16T11:17:50;17.00;99.90
34434;DHT22;34290;48.562;13.384;2023-05-16T11:20:36;17.20;99.90
34434;DHT22;34290;48.562;13.384;2023-05-16T11:23:23;17.60;99.90
34434;DHT22;34290;48.562;13.384;2023-05-16T11:25:53;17.60;99.90
34434;DHT22;34290;48.562;13.384;2023-05-16T11:28:21;17.60;99.90
34434;DHT22;34290;48.562;13.384;2023-05-16T11:30:51;17.70;99.90
34434;DHT22;34290;48.562;13.384;2023-05-16T11:33:24;17.60;99.90
34434;DHT22;34290;48.562;13.384;2023-05-16T11:36:02;17.70;99.90
34434;DHT22;34290;48.562;13.384;2023-05-16T11:38:29;17.70;99.90
34434;DHT22;34290;48.562;13.384;2023-05-16T11:41:04;17.50;99.90
34434;DHT22;34290;48.562;13.384;2023-05-16T11:48:34;16.60;99.90
34434;DHT22;34290;48.562;13.384;2023-05-16T11:51:01;16.50;99.90
34434;DHT22;34290;48.562;13.384;2023-05-16T11:53:29;16.40;99.90
34434;DHT22;34290;48.562;13.384;2023-05-16T11:55:56;16.60;99.90
34434;DHT22;34290;48.562;13.384;2023-05-16T12:00:52;16.50;99.90
34434;DHT22;34290;48.562;13.384;2023-05-16T12:03:19;16.30;99.90
34434;DHT22;34290;48.562;13.384;2023-05-16T12:10:49;15.90;99.90
34434;DHT22;34290;48.562;13.384;2023-05-16T12:13:18;15.70;99.90
34434;DHT22;34290;48.562;13.384;2023-05-16T12:20:40;15.80;99.90
34434;DHT22;34290;48.562;13.384;2023-05-16T12:25:39;16.50;99.90
34434;DHT22;34290;48.562;13.384;2023-05-16T12:28:12;16.70;99.90
34434;DHT22;34290;48.562;13.384;2023-05-16T12:33:08;16.50;99.90
34434;DHT22;34290;48.562;13.384;2023-05-16T12:35:37;16.60;99.90
34434;DHT22;34290;48.562;13.384;2023-05-16T12:40:35;17.20;99.90
34434;DHT22;34290;48.562;13.384;2023-05-16T12:45:33;17.60;99.90
34434;DHT22;34290;48.562;13.384;2023-05-16T12:48:04;17.30;99.90
34434;DHT22;34290;48.562;13.384;2023-05-16T12:50:32;17.20;99.90
34434;DHT22;34290;48.562;13.384;2023-05-16T12:53:01;16.90;99.90
34434;DHT22;34290;48.562;13.384;2023-05-16T12:55:28;16.80;99.90
34434;DHT22;34290;48.562;13.384;2023-05-16T12:57:56;16.50;99.90
34434;DHT22;34290;48.562;13.384;2023-05-16T13:00:23;16.20;99.90
34434;DHT22;34290;48.562;13.384;2023-05-16T13:07:47;15.70;99.90
34434;DHT22;34290;48.562;13.384;2023-05-16T13:10:17;15.80;99.90
34434;DHT22;34290;48.562;13.384;2023-05-16T13:12:44;15.80;99.90
34434;DHT22;34290;48.562;13.384;2023-05-16T13:15:13;15.90;99.90
34434;DHT22;34290;48.562;13.384;2023-05-16T13:17:41;15.90;99.90
34434;DHT22;34290;48.562;13.384;2023-05-16T13:20:12;15.90;99.90
34434;DHT22;34290;48.562;13.384;2023-05-16T13:22:40;15.70;99.90
34434;DHT22;34290;48.562;13.384;2023-05-16T13:25:08;15.80;99.90
34434;DHT22;34290;48.562;13.384;2023-05-16T13:27:35;15.90;99.90
34434;DHT22;34290;48.562;13.384;2023-05-16T13:32:31;16.30;99.90
34434;DHT22;34290;48.562;13.384;2023-05-16T13:34:58;16.40;99.90
34434;DHT22;34290;48.562;13.384;2023-05-16T13:37:25;16.60;99.90
34434;DHT22;34290;48.562;13.384;2023-05-16T13:39:52;16.70;99.90
34434;DHT22;34290;48.562;13.384;2023-05-16T13:42:20;16.80;99.90
34434;DHT22;34290;48.562;13.384;2023-05-16T13:44:47;17.00;99.90
34434;DHT22;34290;48.562;13.384;2023-05-16T13:47:14;17.10;99.90
34434;DHT22;34290;48.562;13.384;2023-05-16T13:49:43;17.40;99.90
34434;DHT22;34290;48.562;13.384;2023-05-16T13:52:10;17.40;99.90
34434;DHT22;34290;48.562;13.384;2023-05-16T13:54:37;17.60;99.90
34434;DHT22;34290;48.562;13.384;2023-05-16T13:57:05;17.60;99.90
34434;DHT22;34290;48.562;13.384;2023-05-16T13:59:33;17.60;99.90
34434;DHT22;34290;48.562;13.384;2023-05-16T14:01:59;17.50;99.90
34434;DHT22;34290;48.562;13.384;2023-05-16T14:04:26;17.50;99.90
34434;DHT22;34290;48.562;13.384;2023-05-16T14:06:55;17.10;99.90
34434;DHT22;34290;48.562;13.384;2023-05-16T14:09:22;15.40;99.90
34434;DHT22;34290;48.562;13.384;2023-05-16T14:11:49;15.10;99.90
34434;DHT22;34290;48.562;13.384;2023-05-16T14:14:16;15.00;99.90
34434;DHT22;34290;48.562;13.384;2023-05-16T14:19:11;14.70;99.90
34434;DHT22;34290;48.562;13.384;2023-05-16T14:21:38;14.70;99.90
34434;DHT22;34290;48.562;13.384;2023-05-16T14:24:07;14.40;99.90
34434;DHT22;34290;48.562;13.384;2023-05-16T14:26:34;14.30;99.90
34434;DHT22;34290;48.562;13.384;2023-05-16T14:29:01;14.30;99.90
34434;DHT22;34290;48.562;13.384;2023-05-16T14:31:28;14.20;99.90
34434;DHT22;34290;48.562;13.384;2023-05-16T14:33:55;14.00;99.90
34434;DHT22;34290;48.562;13.384;2023-05-16T14:36:23;13.90;99.90
34434;DHT22;34290;48.562;13.384;2023-05-16T14:38:50;13.90;99.90
34434;DHT22;34290;48.562;13.384;2023-05-16T14:41:18;13.70;99.90
34434;DHT22;34290;48.562;13.384;2023-05-16T14:43:45;13.80;99.90
34434;DHT22;34290;48.562;13.384;2023-05-16T14:46:12;13.90;99.90
34434;DHT22;34290;48.562;13.384;2023-05-16T14:48:39;13.80;99.90
34434;DHT22;34290;48.562;13.384;2023-05-16T14:51:06;13.80;99.90
34434;DHT22;34290;48.562;13.384;2023-05-16T14:53:33;13.80;99.90
34434;DHT22;34290;48.562;13.384;2023-05-16T14:56:01;10.80;99.90
34434;DHT22;34290;48.562;13.384;2023-05-16T14:58:29;13.80;99.90
34434;DHT22;34290;48.562;13.384;2023-05-16T15:00:56;13.60;99.90
34434;DHT22;34290;48.562;13.384;2023-05-16T15:03:23;13.50;99.90
34434;DHT22;34290;48.562;13.384;2023-05-16T15:05:50;13.50;99.90
34434;DHT22;34290;48.562;13.384;2023-05-16T15:08:19;13.40;99.90
34434;DHT22;34290;48.562;13.384;2023-05-16T15:10:46;13.10;99.90
34434;DHT22;34290;48.562;13.384;2023-05-16T15:15:42;12.60;99.90
34434;DHT22;34290;48.562;13.384;2023-05-16T15:18:09;12.50;99.90
34434;DHT22;34290;48.562;13.384;2023-05-16T15:20:36;12.50;99.90
34434;DHT22;34290;48.562;13.384;2023-05-16T15:23:03;12.50;99.90
34434;DHT22;34290;48.562;13.384;2023-05-16T15:25:30;12.50;99.90
34434;DHT22;34290;48.562;13.384;2023-05-16T15:27:57;12.40;99.90
34434;DHT22;34290;48.562;13.384;2023-05-16T15:30:24;12.40;99.90
34434;DHT22;34290;48.562;13.384;2023-05-16T15:32:52;12.50;99.90
34434;DHT22;34290;48.562;13.384;2023-05-16T15:35:20;12.60;99.90
34434;DHT22;34290;48.562;13.384;2023-05-16T15:37:47;12.50;99.90
34434;DHT22;34290;48.562;13.384;2023-05-16T15:40:14;12.50;99.90
34434;DHT22;34290;48.562;13.384;2023-05-16T15:42:41;12.60;99.90
34434;DHT22;34290;48.562;13.384;2023-05-16T15:45:12;12.50;99.90
34434;DHT22;34290;48.562;13.384;2023-05-16T15:47:40;12.50;99.90
34434;DHT22;34290;48.562;13.384;2023-05-16T15:50:09;12.50;99.90
34434;DHT22;34290;48.562;13.384;2023-05-16T15:52:37;12.50;99.90
34434;DHT22;34290;48.562;13.384;2023-05-16T15:55:05;12.60;99.90
34434;DHT22;34290;48.562;13.384;2023-05-16T15:57:32;12.60;99.90
34434;DHT22;34290;48.562;13.384;2023-05-16T15:59:59;12.70;99.90
34434;DHT22;34290;48.562;13.384;2023-05-16T16:02:26;12.70;99.90
34434;DHT22;34290;48.562;13.384;2023-05-16T16:04:52;12.70;99.90
34434;DHT22;34290;48.562;13.384;2023-05-16T16:07:21;12.70;99.90
34434;DHT22;34290;48.562;13.384;2023-05-16T16:09:49;12.60;99.90
34434;DHT22;34290;48.562;13.384;2023-05-16T16:12:16;12.60;99.90
34434;DHT22;34290;48.562;13.384;2023-05-16T16:14:43;12.70;99.90
34434;DHT22;34290;48.562;13.384;2023-05-16T16:17:10;12.60;99.90
34434;DHT22;34290;48.562;13.384;2023-05-16T16:19:37;12.50;99.90
34434;DHT22;34290;48.562;13.384;2023-05-16T16:22:04;12.40;99.90
34434;DHT22;34290;48.562;13.384;2023-05-16T16:24:32;12.40;99.90
34434;DHT22;34290;48.562;13.384;2023-05-16T16:26:59;12.40;99.90
34434;DHT22;34290;48.562;13.384;2023-05-16T16:29:26;12.50;99.90
34434;DHT22;34290;48.562;13.384;2023-05-16T16:31:53;12.40;99.90
34434;DHT22;34290;48.562;13.384;2023-05-16T16:34:20;12.50;99.90
34434;DHT22;34290;48.562;13.384;2023-05-16T16:36:47;12.50;99.90